Time;durP1;ratioP1;P1;durP2;ratioP2;P2;SDS_P1;SDS_P2;PMS_P1;PMS_P2;Temp;Humidity;BMP_temperature;BMP_pressure;BME280_temperature;BME280_humidity;BME280_pressure;Samples;Min_cycle;Max_cycle;Signal;HPM_P1;HPM_P2
2023/03/04 00:02:18;;;;;;;50.90;22.95;;;1.30;99.90;;;;;;4335338;28;9999937;-72
2023/03/04 00:04:51;;;;;;;48.60;23.25;;;1.30;99.90;;;;;;5039277;28;20016;-72
2023/03/04 00:07:18;;;;;;;51.83;23.58;;;1.30;99.90;;;;;;5040853;28;20045;-73
2023/03/04 00:09:51;;;;;;;48.35;23.15;;;1.30;99.90;;;;;;5058978;28;20078;-73
2023/03/04 00:12:19;;;;;;;49.28;22.27;;;1.30;99.90;;;;;;5045730;28;20119;-72
2023/03/04 00:14:54;;;;;;;50.90;22.02;;;1.30;99.90;;;;;;5041912;28;20124;-72
2023/03/04 00:17:23;;;;;;;47.75;22.00;;;1.30;99.90;;;;;;5042784;28;20386;-72
2023/03/04 00:19:56;;;;;;;45.53;21.70;;;1.30;99.90;;;;;;5040910;28;20017;-72
2023/03/04 00:22:23;;;;;;;;;;;1.30;99.90;;;;;;5041838;28;20032;-72
2023/03/04 00:25:01;;;;;;;43.95;20.92;;;1.30;99.90;;;;;;5045094;28;20060;-72
2023/03/04 00:27:35;;;;;;;45.53;22.02;;;1.30;99.90;;;;;;5044924;28;20028;-72
2023/03/04 00:30:11;;;;;;;48.72;23.05;;;1.20;99.90;;;;;;5044519;28;20060;-72
2023/03/04 00:32:45;;;;;;;49.95;24.17;;;1.20;99.90;;;;;;5046529;28;20056;-72
2023/03/04 00:35:19;;;;;;;47.92;22.90;;;1.20;99.90;;;;;;5047998;28;20021;-72
2023/03/04 00:37:52;;;;;;;49.38;23.50;;;1.20;99.90;;;;;;5043845;28;20044;-72
2023/03/04 00:40:25;;;;;;;46.13;23.27;;;1.10;99.90;;;;;;5045906;28;20370;-72
2023/03/04 00:42:53;;;;;;;46.05;21.73;;;1.20;99.90;;;;;;5053959;28;20032;-72
2023/03/04 00:45:26;;;;;;;47.88;23.88;;;1.20;99.90;;;;;;5051795;28;20048;-73
2023/03/04 00:47:54;;;;;;;51.08;24.77;;;1.20;99.90;;;;;;5047717;28;20032;-72
2023/03/04 00:50:29;;;;;;;48.63;23.45;;;1.20;99.90;;;;;;5045760;28;20029;-72
2023/03/04 00:53:00;;;;;;;50.25;24.08;;;1.20;99.90;;;;;;5066881;28;20484;-73
2023/03/04 00:55:34;;;;;;;46.60;23.00;;;1.20;99.90;;;;;;5056463;28;20052;-72
2023/03/04 00:58:07;;;;;;;48.42;24.08;;;1.20;99.90;;;;;;5038166;28;20417;-72
2023/03/04 01:00:41;;;;;;;52.60;24.17;;;1.20;99.90;;;;;;5041958;28;20033;-73
2023/03/04 01:03:12;;;;;;;48.80;23.75;;;1.10;99.90;;;;;;5051071;28;20494;-72
2023/03/04 01:05:47;;;;;;;47.25;23.33;;;1.20;99.90;;;;;;5050073;28;20102;-73
2023/03/04 01:08:19;;;;;;;44.40;23.33;;;1.20;99.90;;;;;;5044444;28;20029;-72
2023/03/04 01:10:55;;;;;;;47.78;22.50;;;1.20;99.90;;;;;;5050052;28;20079;-73
2023/03/04 01:13:33;;;;;;;45.38;23.75;;;1.10;99.90;;;;;;5053145;28;20033;-72
2023/03/04 01:16:09;;;;;;;45.13;22.30;;;1.20;99.90;;;;;;5049747;28;20036;-73
2023/03/04 01:18:36;;;;;;;48.40;23.13;;;1.20;99.90;;;;;;5037976;28;20060;-72
2023/03/04 01:21:08;;;;;;;45.38;22.35;;;1.20;99.90;;;;;;5044661;28;20494;-72
2023/03/04 01:23:41;;;;;;;45.10;22.10;;;1.20;99.90;;;;;;5059801;28;21650;-73
2023/03/04 01:26:13;;;;;;;34.58;16.33;;;1.20;99.90;;;;;;5053894;28;20037;-72
2023/03/04 01:28:38;;;;;;;44.22;21.98;;;1.20;99.90;;;;;;5044269;28;20025;-72
2023/03/04 01:31:10;;;;;;;49.38;23.40;;;1.20;99.90;;;;;;5044492;28;20024;-72
2023/03/04 01:33:36;;;;;;;46.90;23.40;;;1.20;99.90;;;;;;5049546;28;20511;-72
2023/03/04 01:36:09;;;;;;;44.50;22.30;;;1.20;99.90;;;;;;5038542;28;20475;-72
2023/03/04 01:38:35;;;;;;;48.05;22.17;;;1.30;99.90;;;;;;5051253;28;20969;-72
2023/03/04 01:41:10;;;;;;;47.97;22.83;;;1.30;99.90;;;;;;5051502;28;20036;-72
2023/03/04 01:43:40;;;;;;;44.45;22.77;;;1.30;99.90;;;;;;5054980;28;20083;-72
2023/03/04 01:46:16;;;;;;;52.53;24.20;;;1.30;99.90;;;;;;5047132;28;20466;-72
2023/03/04 01:48:48;;;;;;;49.00;23.90;;;1.30;99.90;;;;;;5037650;28;20017;-72
2023/03/04 01:51:21;;;;;;;40.17;19.92;;;1.40;99.90;;;;;;5042687;28;20462;-72
2023/03/04 01:53:54;;;;;;;45.70;23.02;;;1.40;99.90;;;;;;5044417;28;20036;-72
2023/03/04 01:56:41;;;;;;;41.88;21.35;;;1.40;99.90;;;;;;5041691;28;20446;-72
2023/03/04 01:59:23;;;;;;;47.28;22.25;;;1.50;99.90;;;;;;5046880;28;20251;-72
2023/03/04 02:02:00;;;;;;;46.90;23.10;;;1.50;99.90;;;;;;5051832;28;20044;-72
2023/03/04 02:04:36;;;;;;;46.45;23.75;;;1.50;99.90;;;;;;5036492;28;21056;-72
2023/03/04 02:07:08;;;;;;;47.13;22.88;;;1.60;99.90;;;;;;5044934;28;20032;-72
2023/03/04 02:09:42;;;;;;;44.83;22.42;;;1.50;99.90;;;;;;5040744;28;20116;-72
2023/03/04 02:12:17;;;;;;;43.72;21.70;;;1.50;99.90;;;;;;5049697;28;20060;-72
2023/03/04 02:14:49;;;;;;;45.97;23.08;;;1.50;99.90;;;;;;5041841;28;20036;-72
2023/03/04 02:17:26;;;;;;;38.38;21.15;;;1.60;99.90;;;;;;5046286;28;20104;-73
2023/03/04 02:20:25;;;;;;;40.45;20.83;;;1.60;99.90;;;;;;5045431;28;20390;-73
2023/03/04 02:23:05;;;;;;;42.28;22.52;;;1.60;99.90;;;;;;5040347;28;20104;-72
2023/03/04 02:25:56;;;;;;;41.90;21.70;;;1.60;99.90;;;;;;5050646;28;20363;-72
2023/03/04 02:28:22;;;;;;;39.03;20.60;;;1.70;99.90;;;;;;5048237;28;20021;-72
2023/03/04 02:31:03;;;;;;;41.03;21.27;;;1.70;99.90;;;;;;5054083;28;20044;-73
2023/03/04 02:33:38;;;;;;;37.30;20.27;;;1.60;99.90;;;;;;5040618;28;20041;-73
2023/03/04 02:36:13;;;;;;;40.58;21.25;;;1.60;99.90;;;;;;5038528;28;20030;-72
2023/03/04 02:38:49;;;;;;;38.47;20.38;;;1.70;99.90;;;;;;5032850;28;20021;-73
2023/03/04 02:41:26;;;;;;;38.42;20.70;;;1.70;99.90;;;;;;5045722;28;20021;-72
2023/03/04 02:43:55;;;;;;;37.15;19.42;;;1.70;99.90;;;;;;5046752;28;20029;-72
2023/03/04 02:46:30;;;;;;;35.53;18.42;;;1.70;99.90;;;;;;5042911;28;20510;-72
2023/03/04 02:49:05;;;;;;;37.75;19.63;;;1.70;99.90;;;;;;5047415;28;20032;-72
2023/03/04 02:51:38;;;;;;;36.15;19.25;;;1.70;99.90;;;;;;5054191;28;20056;-72
2023/03/04 02:54:20;;;;;;;35.65;19.35;;;1.70;99.90;;;;;;5043198;28;20029;-72
2023/03/04 05:20:58;;;;;;;21.95;5.97;;;2.80;99.90;;;;;;5029675;28;20091;-72
2023/03/04 05:23:26;;;;;;;24.00;7.40;;;2.80;99.90;;;;;;5050374;28;20120;-72
2023/03/04 05:25:53;;;;;;;19.90;6.28;;;2.70;99.90;;;;;;5050016;28;20029;-72
2023/03/04 05:28:20;;;;;;;25.85;6.55;;;2.80;99.90;;;;;;5047842;28;20029;-72
2023/03/04 05:30:49;;;;;;;19.77;6.82;;;2.70;99.90;;;;;;5050119;28;20025;-72
2023/03/04 05:33:19;;;;;;;32.67;6.95;;;2.70;99.90;;;;;;5047380;28;20025;-72
2023/03/04 05:35:48;;;;;;;23.88;6.13;;;2.70;99.90;;;;;;5039099;28;20025;-72
2023/03/04 05:38:19;;;;;;;18.70;6.70;;;2.70;99.90;;;;;;5049511;28;20017;-72
2023/03/04 05:40:56;;;;;;;24.13;6.53;;;2.80;99.90;;;;;;5043607;28;20024;-72
2023/03/04 05:43:23;;;;;;;25.10;7.05;;;2.80;99.90;;;;;;5044666;28;20474;-72
2023/03/04 05:45:57;;;;;;;18.90;6.10;;;2.80;99.90;;;;;;5052293;28;20032;-72
2023/03/04 05:48:27;;;;;;;25.50;6.80;;;2.80;99.90;;;;;;5037693;28;20029;-72
2023/03/04 05:51:02;;;;;;;24.73;6.40;;;2.80;99.90;;;;;;5045789;28;20049;-72
2023/03/04 05:53:35;;;;;;;19.52;6.28;;;2.80;99.90;;;;;;5042476;28;20037;-72
2023/03/04 05:56:10;;;;;;;26.38;6.30;;;2.80;99.90;;;;;;5040574;28;20064;-72
2023/03/04 05:58:36;;;;;;;24.58;6.55;;;2.80;99.90;;;;;;5041764;28;20029;-72
2023/03/04 06:01:05;;;;;;;25.23;6.88;;;2.80;99.90;;;;;;5048784;28;20031;-72
2023/03/04 06:03:38;;;;;;;27.52;5.55;;;2.80;99.90;;;;;;5039687;28;20021;-72
2023/03/04 06:06:04;;;;;;;;;;;2.80;99.90;;;;;;5042439;28;20040;-73
2023/03/04 06:08:33;;;;;;;24.27;6.20;;;2.90;99.90;;;;;;5045732;28;19923;-73
2023/03/04 06:11:07;;;;;;;28.15;6.63;;;2.90;99.90;;;;;;5047413;28;20481;-73
2023/03/04 06:13:37;;;;;;;22.00;5.72;;;2.90;99.90;;;;;;5046848;28;20048;-72
2023/03/04 06:16:07;;;;;;;20.45;6.13;;;2.90;99.90;;;;;;5042106;28;20106;-73
2023/03/04 06:18:36;;;;;;;20.23;5.78;;;3.00;99.90;;;;;;5042794;28;20819;-73
2023/03/04 06:21:10;;;;;;;15.52;5.30;;;2.90;99.90;;;;;;5040907;28;20401;-72
2023/03/04 06:23:40;;;;;;;20.50;6.00;;;2.90;99.90;;;;;;5048982;28;20741;-72
2023/03/04 06:26:14;;;;;;;20.98;5.57;;;2.90;99.90;;;;;;5044879;28;20087;-72
2023/03/04 06:28:42;;;;;;;14.88;5.55;;;2.90;99.90;;;;;;5045079;28;20052;-72
2023/03/04 06:31:09;;;;;;;16.17;5.25;;;2.90;99.90;;;;;;5049033;28;20082;-73
2023/03/04 06:33:40;;;;;;;26.27;6.38;;;2.90;99.90;;;;;;5055691;28;20493;-73
2023/03/04 06:36:09;;;;;;;21.15;6.40;;;2.90;99.90;;;;;;5039585;28;20017;-72
2023/03/04 06:38:43;;;;;;;23.85;6.47;;;2.90;99.90;;;;;;5057583;28;20484;-72
2023/03/04 06:41:11;;;;;;;21.73;5.90;;;3.00;99.90;;;;;;5035489;28;20554;-72
2023/03/04 06:43:38;;;;;;;26.80;6.65;;;3.00;99.90;;;;;;5023941;28;20586;-72
2023/03/04 06:46:08;;;;;;;17.55;5.82;;;3.10;99.90;;;;;;5026458;28;20041;-72
2023/03/04 06:48:34;;;;;;;24.58;6.82;;;3.10;99.90;;;;;;5028724;28;20163;-72
2023/03/04 06:51:08;;;;;;;18.17;5.45;;;3.10;99.90;;;;;;5025403;28;20033;-72
2023/03/04 06:53:36;;;;;;;20.70;5.78;;;3.10;99.90;;;;;;5033004;28;21006;-72
2023/03/04 06:56:03;;;;;;;22.42;5.90;;;3.10;99.90;;;;;;5048656;28;20383;-72
2023/03/04 06:58:30;;;;;;;22.80;5.78;;;3.20;99.90;;;;;;5050832;28;20052;-73
2023/03/04 07:00:56;;;;;;;23.75;6.15;;;3.20;99.90;;;;;;5041547;28;20116;-72
2023/03/04 07:03:22;;;;;;;21.60;5.78;;;3.20;99.90;;;;;;5030887;28;20025;-73
2023/03/04 07:05:48;;;;;;;20.00;5.43;;;3.20;99.90;;;;;;5041758;28;20029;-72
2023/03/04 07:08:14;;;;;;;19.90;5.55;;;3.20;99.90;;;;;;5040147;28;20021;-73
2023/03/04 07:10:40;;;;;;;20.48;5.60;;;3.30;99.90;;;;;;5038427;28;20032;-72
2023/03/04 07:13:06;;;;;;;22.05;6.20;;;3.30;99.90;;;;;;5043010;28;20033;-73
2023/03/04 07:15:32;;;;;;;15.73;4.68;;;3.30;99.90;;;;;;5040032;28;20025;-71
2023/03/04 07:18:03;;;;;;;18.55;5.47;;;3.30;99.90;;;;;;5046903;28;20036;-72
2023/03/04 07:20:28;;;;;;;21.15;5.60;;;3.30;99.90;;;;;;5044344;28;20037;-73
2023/03/04 07:22:54;;;;;;;21.23;5.85;;;3.40;99.90;;;;;;5054253;28;20037;-72
2023/03/04 07:25:20;;;;;;;13.55;4.72;;;3.30;99.90;;;;;;5044438;28;20933;-72
2023/03/04 07:27:46;;;;;;;20.48;5.60;;;3.30;99.90;;;;;;5043123;28;20559;-73
2023/03/04 07:30:13;;;;;;;21.35;6.10;;;3.30;99.90;;;;;;5049446;28;20649;-73
2023/03/04 07:32:40;;;;;;;22.58;6.28;;;3.30;99.90;;;;;;5049134;28;20033;-73
2023/03/04 07:35:12;;;;;;;20.02;6.45;;;3.30;99.90;;;;;;5051068;28;20027;-72
2023/03/04 07:37:40;;;;;;;20.30;5.75;;;3.30;99.90;;;;;;5054285;28;20031;-72
2023/03/04 07:40:11;;;;;;;12.48;4.85;;;3.40;99.90;;;;;;5043183;28;20180;-72
2023/03/04 07:42:39;;;;;;;17.48;4.95;;;3.40;99.90;;;;;;5051132;28;20039;-72
2023/03/04 07:45:07;;;;;;;22.38;5.40;;;3.40;99.90;;;;;;5040505;28;20096;-72
2023/03/04 07:47:35;;;;;;;16.15;4.47;;;3.40;99.90;;;;;;5057791;28;20020;-72
2023/03/04 07:50:07;;;;;;;18.33;4.97;;;3.40;99.90;;;;;;5041945;28;20491;-72
2023/03/04 07:52:46;;;;;;;15.02;4.32;;;3.40;99.90;;;;;;5046343;28;20173;-71
2023/03/04 07:55:15;;;;;;;18.73;4.75;;;3.40;99.90;;;;;;5049018;28;20034;-71
2023/03/04 07:57:47;;;;;;;16.15;4.68;;;3.50;99.90;;;;;;5043318;28;20022;-73
2023/03/04 08:00:16;;;;;;;12.57;3.63;;;3.50;99.90;;;;;;5038840;28;20909;-72
2023/03/04 08:02:46;;;;;;;16.00;4.28;;;3.50;99.90;;;;;;5044178;28;20851;-72
2023/03/04 08:05:13;;;;;;;15.35;5.35;;;3.50;99.90;;;;;;5046021;28;20099;-71
2023/03/04 08:07:41;;;;;;;13.95;4.22;;;3.60;99.90;;;;;;5048149;28;20025;-71
2023/03/04 08:10:09;;;;;;;14.02;4.45;;;3.60;99.90;;;;;;5031939;28;20025;-72
2023/03/04 08:12:35;;;;;;;18.73;5.68;;;3.70;99.90;;;;;;5039751;28;20040;-72
2023/03/04 08:15:04;;;;;;;16.63;4.57;;;3.70;99.90;;;;;;5029370;28;20256;-71
2023/03/04 08:17:31;;;;;;;14.15;4.32;;;3.70;99.90;;;;;;5050086;28;20037;-71
2023/03/04 08:19:57;;;;;;;19.52;4.63;;;3.80;99.90;;;;;;5049247;28;20029;-71
2023/03/04 08:22:23;;;;;;;13.00;4.88;;;;;;;;;;5039184;28;20128;-72
2023/03/04 08:24:49;;;;;;;14.32;4.03;;;;;;;;;;5050561;28;20690;-75
2023/03/04 08:27:17;;;;;;;12.13;4.05;;;;;;;;;;5056163;28;20090;-76
2023/03/04 08:29:44;;;;;;;13.02;4.13;;;;;;;;;;5053198;28;20032;-75
2023/03/04 08:32:11;;;;;;;13.60;4.53;;;;;;;;;;5044752;28;20062;-75
2023/03/04 08:34:39;;;;;;;14.02;4.57;;;;;;;;;;5045035;28;20029;-75
2023/03/04 08:37:06;;;;;;;12.73;4.28;;;;;;;;;;5055505;28;20602;-75
2023/03/04 08:39:35;;;;;;;15.00;4.57;;;;;;;;;;5052131;28;20037;-75
2023/03/04 08:42:01;;;;;;;15.13;5.22;;;;;;;;;;5048277;28;20105;-75
2023/03/04 08:44:31;;;;;;;15.60;4.55;;;4.50;99.90;;;;;;5052896;28;20050;-75
2023/03/04 08:46:56;;;;;;;11.93;4.60;;;4.50;99.90;;;;;;5048635;28;20025;-75
2023/03/04 08:49:22;;;;;;;13.15;4.85;;;4.70;99.90;;;;;;5037315;28;20040;-75
2023/03/04 08:51:53;;;;;;;12.38;4.50;;;4.80;99.90;;;;;;5042647;28;20052;-75
2023/03/04 08:54:19;;;;;;;16.20;4.35;;;4.90;99.90;;;;;;5056479;28;20040;-74
2023/03/04 08:56:45;;;;;;;12.57;4.88;;;5.10;99.90;;;;;;5051520;28;20029;-74
2023/03/04 08:59:13;;;;;;;12.48;4.35;;;5.20;99.90;;;;;;5042462;28;20028;-74
2023/03/04 09:01:45;;;;;;;10.13;3.85;;;5.20;99.90;;;;;;5048638;28;20052;-74
2023/03/04 09:04:19;;;;;;;16.67;4.55;;;5.30;99.90;;;;;;5047349;28;20040;-74
2023/03/04 09:06:48;;;;;;;10.85;4.10;;;5.30;99.90;;;;;;5036082;28;20052;-75
2023/03/04 09:09:17;;;;;;;10.27;3.85;;;5.30;99.90;;;;;;5042396;28;20029;-75
2023/03/04 09:11:43;;;;;;;11.00;3.72;;;5.30;99.90;;;;;;5051614;28;20033;-74
2023/03/04 09:14:12;;;;;;;9.50;3.92;;;5.30;99.90;;;;;;5059306;28;20042;-75
2023/03/04 09:16:39;;;;;;;13.02;3.92;;;5.20;99.90;;;;;;5048423;28;20017;-75
2023/03/04 09:19:10;;;;;;;10.45;3.35;;;5.20;99.90;;;;;;5061903;28;20040;-75
2023/03/04 09:21:35;;;;;;;12.95;3.40;;;5.20;99.90;;;;;;5045981;28;20043;-75
2023/03/04 09:24:06;;;;;;;12.60;3.28;;;5.30;99.90;;;;;;5049347;28;20025;-72
2023/03/04 09:26:31;;;;;;;7.90;3.13;;;5.40;99.90;;;;;;5051376;28;20035;-73
2023/03/04 09:28:59;;;;;;;10.80;3.05;;;5.50;99.90;;;;;;5045716;28;20408;-73
2023/03/04 09:31:25;;;;;;;7.38;3.00;;;;;;;;;;5042409;28;20036;-73
2023/03/04 09:33:56;;;;;;;9.13;3.25;;;;;;;;;;5042576;28;20068;-72
2023/03/04 09:36:24;;;;;;;10.82;2.58;;;;;;;;;;5047960;28;20037;-73
2023/03/04 09:38:57;;;;;;;11.35;2.65;;;5.80;99.90;;;;;;5048512;28;20029;-72
2023/03/04 09:41:35;;;;;;;7.22;2.22;;;5.80;99.90;;;;;;5038908;28;20060;-72
2023/03/04 09:44:19;;;;;;;5.55;2.00;;;5.80;99.90;;;;;;5049804;28;20025;-72
2023/03/04 09:46:52;;;;;;;6.93;2.30;;;;;;;;;;5038958;28;20025;-72
2023/03/04 09:49:24;;;;;;;5.28;2.30;;;;;;;;;;5052948;28;20026;-72
2023/03/04 09:52:09;;;;;;;7.90;2.17;;;;;;;;;;5037424;28;20061;-72
2023/03/04 09:54:53;;;;;;;4.50;1.80;;;;;;;;;;5045105;28;20108;-72
2023/03/04 09:57:34;;;;;;;5.85;1.92;;;;;;;;;;5042899;28;20044;-72
2023/03/04 10:00:08;;;;;;;6.20;1.90;;;;;;;;;;5043653;28;20056;-72
2023/03/04 10:02:42;;;;;;;3.95;1.92;;;;;;;;;;5041383;28;20036;-72
2023/03/04 10:05:13;;;;;;;7.32;1.90;;;;;;;;;;5045479;28;20040;-72
2023/03/04 10:07:41;;;;;;;7.55;2.40;;;;;;;;;;5036201;28;20025;-73
2023/03/04 10:10:17;;;;;;;6.85;2.30;;;;;;;;;;5042379;28;20036;-72
2023/03/04 10:12:46;;;;;;;9.57;2.53;;;;;;;;;;5035133;28;20040;-72
2023/03/04 10:15:24;;;;;;;6.38;2.00;;;;;;;;;;5048987;28;20377;-72
2023/03/04 10:17:56;;;;;;;6.55;2.30;;;;;;;;;;5045064;28;20041;-72
2023/03/04 10:20:24;;;;;;;9.80;2.10;;;;;;;;;;5033585;28;20065;-72
2023/03/04 10:22:50;;;;;;;7.18;2.22;;;;;;;;;;5040513;28;20123;-72
2023/03/04 10:25:19;;;;;;;6.25;2.10;;;;;;;;;;5049053;28;20385;-72
2023/03/04 10:27:58;;;;;;;6.28;2.03;;;;;;;;;;5054827;28;20018;-72
2023/03/04 10:30:46;;;;;;;6.88;2.00;;;5.90;99.90;;;;;;5052764;28;20429;-72
2023/03/04 10:33:15;;;;;;;6.68;2.00;;;5.90;99.90;;;;;;5047589;28;20060;-72
2023/03/04 10:35:47;;;;;;;4.57;1.88;;;5.90;99.90;;;;;;5039156;28;20029;-72
2023/03/04 10:38:15;;;;;;;7.90;2.00;;;5.90;99.90;;;;;;5049560;28;20139;-72
2023/03/04 10:40:47;;;;;;;10.43;5.97;;;6.00;99.90;;;;;;5041830;28;20040;-72
2023/03/04 10:43:19;;;;;;;5.72;2.00;;;6.10;99.90;;;;;;5039538;28;20667;-72
2023/03/04 10:46:02;;;;;;;5.00;1.70;;;6.30;99.90;;;;;;5040415;28;20033;-72
2023/03/04 10:48:35;;;;;;;3.57;1.47;;;6.30;99.90;;;;;;5042665;28;20021;-72
2023/03/04 10:51:19;;;;;;;6.38;2.80;;;6.20;99.90;;;;;;5040825;28;20675;-72
2023/03/04 10:53:56;;;;;;;2.13;1.58;;;6.10;99.90;;;;;;5034185;28;20116;-72
2023/03/04 10:56:38;;;;;;;5.28;2.88;;;6.10;99.90;;;;;;5050193;28;20032;-72
2023/03/04 10:59:32;;;;;;;8.63;3.05;;;6.10;99.90;;;;;;5048737;28;20365;-71
2023/03/04 11:02:01;;;;;;;6.00;1.83;;;6.00;99.90;;;;;;5036675;28;20033;-72
2023/03/04 11:04:35;;;;;;;7.15;3.60;;;6.10;99.90;;;;;;5040322;28;20034;-72
2023/03/04 11:07:10;;;;;;;4.47;2.70;;;6.20;99.90;;;;;;5050556;28;20033;-72
2023/03/04 11:09:39;;;;;;;5.68;2.80;;;6.20;99.90;;;;;;5041923;28;20183;-71
2023/03/04 11:12:12;;;;;;;6.10;3.28;;;6.20;99.90;;;;;;5037109;28;20039;-72
2023/03/04 11:14:51;;;;;;;5.03;2.92;;;6.30;99.90;;;;;;5041869;28;20393;-72
2023/03/04 11:17:46;;;;;;;10.38;4.65;;;6.30;99.90;;;;;;5034914;28;20069;-72
2023/03/04 11:20:28;;;;;;;4.32;1.58;;;6.30;99.90;;;;;;5055821;28;20036;-72
2023/03/04 11:23:03;;;;;;;3.90;1.48;;;6.20;99.90;;;;;;5042947;28;20098;-72
2023/03/04 11:25:54;;;;;;;5.65;1.48;;;6.20;99.90;;;;;;5037750;28;20025;-72
2023/03/04 11:28:32;;;;;;;3.80;1.75;;;6.20;99.90;;;;;;5053831;28;20037;-72
2023/03/04 11:31:03;;;;;;;2.65;1.23;;;6.20;99.90;;;;;;5030306;28;20033;-72
2023/03/04 11:33:50;;;;;;;3.95;1.10;;;6.20;99.90;;;;;;5034031;28;20466;-72
2023/03/04 11:36:22;;;;;;;3.92;1.45;;;6.20;99.90;;;;;;5036041;28;20021;-72
2023/03/04 11:38:56;;;;;;;3.42;1.58;;;6.10;99.90;;;;;;5045247;28;20025;-72
2023/03/04 11:41:32;;;;;;;7.75;1.55;;;6.10;99.90;;;;;;5050465;28;20354;-72
2023/03/04 11:44:06;;;;;;;3.08;1.20;;;6.10;99.90;;;;;;5047511;28;20060;-72
2023/03/04 11:46:51;;;;;;;3.47;1.00;;;;;;;;;;5036267;28;20040;-72
2023/03/04 11:49:28;;;;;;;2.88;1.40;;;;;;;;;;5046144;28;20300;-71
2023/03/04 11:52:09;;;;;;;4.95;1.40;;;;;;;;;;5042511;28;20535;-72
2023/03/04 11:55:01;;;;;;;4.28;1.75;;;6.00;99.90;;;;;;5042137;28;20029;-73
2023/03/04 11:57:34;;;;;;;9.50;2.50;;;6.00;99.90;;;;;;5047163;28;20037;-72
2023/03/04 12:00:13;;;;;;;;;;;5.90;99.90;;;;;;5037215;28;20086;-75
2023/03/04 12:02:48;;;;;;;4.95;1.45;;;5.90;99.90;;;;;;5055677;28;19947;-72
2023/03/04 12:05:52;;;;;;;2.78;1.50;;;5.90;99.90;;;;;;5040020;28;20049;-72
2023/03/04 12:08:43;;;;;;;3.45;1.33;;;5.90;99.90;;;;;;4978542;28;20036;-72
2023/03/04 12:11:33;;;;;;;3.63;1.50;;;6.00;99.90;;;;;;5048042;28;20118;-73
2023/03/04 12:14:38;;;;;;;3.78;1.10;;;6.00;99.90;;;;;;5040796;28;20053;-72
2023/03/04 12:17:30;;;;;;;3.22;1.70;;;6.10;99.90;;;;;;5038317;28;20052;-73
2023/03/04 12:20:27;;;;;;;1.20;0.90;;;6.20;99.90;;;;;;5031269;28;20033;-73
2023/03/04 12:23:29;;;;;;;3.47;1.15;;;6.30;99.90;;;;;;5001214;28;20042;-72
2023/03/04 12:26:18;;;;;;;4.47;1.58;;;6.30;99.90;;;;;;5031473;28;20030;-73
2023/03/04 12:29:04;;;;;;;1.85;1.25;;;6.30;99.90;;;;;;5031340;28;20112;-73
2023/03/04 12:31:44;;;;;;;10.50;1.52;;;6.30;99.90;;;;;;5001708;28;20807;-72
2023/03/04 12:34:41;;;;;;;2.88;1.50;;;6.30;99.90;;;;;;4999818;28;20048;-73
2023/03/04 12:37:44;;;;;;;5.45;2.90;;;6.20;99.90;;;;;;4997739;28;20113;-73
2023/03/04 12:40:36;;;;;;;2.35;1.33;;;6.20;99.90;;;;;;5000921;28;20234;-72
2023/03/04 12:43:32;;;;;;;4.22;1.80;;;6.20;99.90;;;;;;4991582;28;20048;-72
2023/03/04 12:46:07;;;;;;;3.20;1.10;;;6.20;99.90;;;;;;5004771;28;20109;-72
2023/03/04 12:49:08;;;;;;;1.70;1.10;;;6.20;99.90;;;;;;5003685;28;20036;-72
2023/03/04 12:51:55;;;;;;;3.25;1.55;;;6.20;99.90;;;;;;4997903;28;20038;-72
2023/03/04 12:54:38;;;;;;;3.00;1.48;;;6.10;99.90;;;;;;4994028;28;20033;-72
2023/03/04 12:57:15;;;;;;;3.05;1.70;;;6.10;99.90;;;;;;5004427;28;20104;-72
2023/03/04 13:00:22;;;;;;;3.03;1.60;;;6.10;99.90;;;;;;4996677;28;20034;-73
2023/03/04 13:03:06;;;;;;;5.45;1.80;;;6.10;99.90;;;;;;5010684;28;20347;-72
2023/03/04 13:05:48;;;;;;;2.50;1.27;;;;;;;;;;5008484;28;20095;-72
2023/03/04 13:08:44;;;;;;;2.38;1.40;;;6.30;99.90;;;;;;5003445;28;20049;-73
2023/03/04 13:11:31;;;;;;;3.90;1.30;;;6.20;99.90;;;;;;4995751;28;20042;-73
2023/03/04 13:14:24;;;;;;;3.70;1.50;;;6.30;99.90;;;;;;4995355;28;20037;-73
2023/03/04 13:17:21;;;;;;;4.97;2.10;;;6.30;99.90;;;;;;4980337;28;20048;-73
2023/03/04 13:19:55;;;;;;;4.68;1.63;;;6.30;99.90;;;;;;4992427;28;20038;-73
2023/03/04 13:22:43;;;;;;;6.35;2.35;;;6.20;99.90;;;;;;5045892;28;20061;-73
2023/03/04 13:25:41;;;;;;;1.85;1.50;;;6.20;99.90;;;;;;5037091;28;20032;-73
2023/03/04 13:28:19;;;;;;;5.18;2.70;;;6.10;99.90;;;;;;5040626;28;20044;-73
2023/03/04 13:30:58;;;;;;;3.25;1.90;;;6.00;99.90;;;;;;5047614;28;20120;-72
2023/03/04 13:33:33;;;;;;;3.53;1.98;;;;;;;;;;5035991;28;20041;-73
2023/03/04 13:36:25;;;;;;;2.00;1.60;;;6.10;99.90;;;;;;5045789;28;20025;-73
2023/03/04 13:39:15;;;;;;;5.07;2.40;;;6.10;99.90;;;;;;5049345;28;20436;-73
2023/03/04 13:41:55;;;;;;;3.30;1.80;;;6.20;99.90;;;;;;5038160;28;20393;-73
2023/03/04 13:44:56;;;;;;;5.25;2.30;;;6.20;99.90;;;;;;5038636;28;20041;-73
2023/03/04 13:47:32;;;;;;;2.80;1.83;;;6.20;99.90;;;;;;5029183;28;20030;-73
2023/03/04 13:50:38;;;;;;;5.30;1.70;;;6.30;99.90;;;;;;5044398;28;20025;-73
2023/03/04 13:54:09;;;;;;;4.65;2.08;;;6.30;99.90;;;;;;5044022;28;20065;-73
2023/03/04 13:56:50;;;;;;;6.20;1.98;;;6.40;99.90;;;;;;4976546;28;20074;-73
2023/03/04 13:59:43;;;;;;;6.70;1.95;;;6.40;99.90;;;;;;5048601;28;20041;-73
2023/03/04 14:02:18;;;;;;;5.00;1.85;;;6.40;99.90;;;;;;5043556;28;20082;-72
2023/03/04 14:04:59;;;;;;;4.13;1.63;;;6.40;99.90;;;;;;5045898;28;20102;-72
2023/03/04 14:07:33;;;;;;;3.05;1.40;;;;;;;;;;5048331;28;20555;-72
2023/03/04 14:10:04;;;;;;;4.95;1.45;;;;;;;;;;5036305;28;20230;-73
2023/03/04 14:12:39;;;;;;;5.00;1.77;;;;;;;;;;5047704;28;20363;-73
2023/03/04 14:15:23;;;;;;;3.67;1.83;;;;;;;;;;5046689;28;20036;-72
2023/03/04 14:17:52;;;;;;;3.65;1.40;;;;;;;;;;5031472;28;20030;-72
2023/03/04 14:20:26;;;;;;;3.28;1.95;;;;;;;;;;5046876;28;20116;-73
2023/03/04 14:22:56;;;;;;;2.67;1.45;;;6.90;99.90;;;;;;5045198;28;20032;-73
2023/03/04 14:25:29;;;;;;;6.32;1.80;;;6.80;99.90;;;;;;5034352;28;20056;-73
2023/03/04 14:28:15;;;;;;;2.72;1.48;;;6.70;99.90;;;;;;5038486;28;20029;-73
2023/03/04 14:31:03;;;;;;;5.30;2.03;;;6.70;99.90;;;;;;5044378;28;20033;-73
2023/03/04 14:33:38;;;;;;;4.05;2.05;;;6.60;99.90;;;;;;5043483;28;20037;-73
2023/03/04 14:36:20;;;;;;;7.53;2.28;;;6.60;99.90;;;;;;5037534;28;20037;-73
2023/03/04 14:39:00;;;;;;;4.63;1.77;;;6.50;99.90;;;;;;5047325;28;20032;-73
2023/03/04 14:41:44;;;;;;;4.22;1.92;;;6.50;99.90;;;;;;5031433;28;20115;-72
2023/03/04 14:44:34;;;;;;;5.15;1.92;;;6.50;99.90;;;;;;5045362;28;20041;-73
2023/03/04 14:47:40;;;;;;;5.10;1.92;;;6.40;99.90;;;;;;5028736;28;20384;-73
2023/03/04 14:50:16;;;;;;;4.85;2.10;;;6.40;99.90;;;;;;5040037;28;20551;-73
2023/03/04 14:52:50;;;;;;;7.97;2.22;;;6.40;99.90;;;;;;5045317;28;20051;-72
2023/03/04 14:55:28;;;;;;;8.55;2.30;;;6.40;99.90;;;;;;5046859;28;20036;-73
2023/03/04 14:58:19;;;;;;;5.80;3.10;;;6.40;99.90;;;;;;5039980;28;20417;-73
2023/03/04 15:00:47;;;;;;;6.10;2.58;;;6.30;99.90;;;;;;5037491;28;20013;-72
2023/03/04 15:03:23;;;;;;;8.98;3.50;;;6.40;99.90;;;;;;5045648;28;20040;-72
2023/03/04 15:05:54;;;;;;;4.88;2.05;;;6.30;99.90;;;;;;5045881;28;20590;-73
2023/03/04 15:08:40;;;;;;;5.32;2.70;;;6.30;99.90;;;;;;5035892;28;20375;-72
2023/03/04 15:11:16;;;;;;;4.53;2.08;;;;;;;;;;5048392;28;20017;-72
2023/03/04 15:13:48;;;;;;;4.22;1.92;;;;;;;;;;5043371;28;20029;-72
2023/03/04 15:16:21;;;;;;;7.40;3.60;;;;;;;;;;5044759;28;20408;-72
2023/03/04 15:19:04;;;;;;;3.58;2.08;;;;;;;;;;5043240;28;20506;-72
2023/03/04 15:21:36;;;;;;;6.38;2.20;;;;;;;;;;5037833;28;20045;-72
2023/03/04 15:24:07;;;;;;;5.35;2.03;;;;;;;;;;5040171;28;20494;-72
2023/03/04 15:26:44;;;;;;;3.28;1.95;;;;;;;;;;5038446;28;20045;-72
2023/03/04 15:29:22;;;;;;;6.25;3.05;;;;;;;;;;5045034;28;20570;-72
2023/03/04 15:31:55;;;;;;;8.80;2.42;;;6.20;99.90;;;;;;5041898;28;20060;-73
2023/03/04 15:34:29;;;;;;;3.42;1.98;;;6.10;99.90;;;;;;5042441;28;20021;-72
2023/03/04 15:37:02;;;;;;;5.03;2.30;;;6.10;99.90;;;;;;5046846;28;20044;-73
2023/03/04 15:39:40;;;;;;;8.57;3.03;;;6.00;99.90;;;;;;5047461;28;20111;-72
2023/03/04 15:42:14;;;;;;;6.30;3.20;;;6.00;99.90;;;;;;5045735;28;20033;-73
2023/03/04 15:44:44;;;;;;;3.67;2.30;;;6.00;99.90;;;;;;5042895;28;20723;-73
2023/03/04 15:47:17;;;;;;;4.45;2.42;;;6.00;99.90;;;;;;5040751;28;20095;-73
2023/03/04 15:49:51;;;;;;;6.10;2.88;;;6.00;99.90;;;;;;5046224;28;20099;-73
2023/03/04 15:52:27;;;;;;;4.35;3.08;;;5.90;99.90;;;;;;5044869;28;20043;-72
2023/03/04 15:55:00;;;;;;;6.35;3.40;;;6.00;99.90;;;;;;5043151;28;20029;-73
2023/03/04 15:57:32;;;;;;;7.18;2.38;;;5.90;99.90;;;;;;5040380;28;20038;-73
2023/03/04 16:00:03;;;;;;;8.93;3.80;;;5.90;99.90;;;;;;5044904;28;20128;-73
2023/03/04 16:02:40;;;;;;;4.82;2.65;;;5.80;99.90;;;;;;5035243;28;20021;-73
2023/03/04 16:05:11;;;;;;;7.50;2.60;;;5.80;99.90;;;;;;5034707;28;20029;-73
2023/03/04 16:07:47;;;;;;;4.63;2.65;;;5.80;99.90;;;;;;5046815;28;20033;-73
2023/03/04 16:10:23;;;;;;;6.30;3.33;;;5.80;99.90;;;;;;5047354;28;20413;-73
2023/03/04 16:12:59;;;;;;;5.50;3.30;;;5.70;99.90;;;;;;5027777;28;20041;-73